sensor_id;sensor_type;location;lat;lon;timestamp;P1;durP1;ratioP1;P2;durP2;ratioP2
75700;SDS011;64321;48.796;44.740;2023-05-23T00:03:58;7.00;;;3.63;;
75700;SDS011;64321;48.796;44.740;2023-05-23T00:09:01;6.28;;;2.20;;
75700;SDS011;64321;48.796;44.740;2023-05-23T00:14:03;5.53;;;2.40;;
75700;SDS011;64321;48.796;44.740;2023-05-23T00:19:09;4.65;;;2.42;;
75700;SDS011;64321;48.796;44.740;2023-05-23T00:24:12;7.85;;;3.72;;
75700;SDS011;64321;48.796;44.740;2023-05-23T00:29:14;6.43;;;2.60;;
75700;SDS011;64321;48.796;44.740;2023-05-23T00:34:17;5.90;;;2.40;;
75700;SDS011;64321;48.796;44.740;2023-05-23T00:39:20;6.38;;;4.43;;
75700;SDS011;64321;48.796;44.740;2023-05-23T00:44:23;18.27;;;2.97;;
75700;SDS011;64321;48.796;44.740;2023-05-23T00:49:25;5.40;;;2.70;;
75700;SDS011;64321;48.796;44.740;2023-05-23T00:54:29;6.40;;;2.60;;
75700;SDS011;64321;48.796;44.740;2023-05-23T00:59:34;7.20;;;2.70;;
75700;SDS011;64321;48.796;44.740;2023-05-23T01:04:38;6.80;;;3.15;;
75700;SDS011;64321;48.796;44.740;2023-05-23T01:09:41;9.90;;;6.18;;
75700;SDS011;64321;48.796;44.740;2023-05-23T01:14:56;21.05;;;12.00;;
75700;SDS011;64321;48.796;44.740;2023-05-23T01:30:29;10.20;;;6.97;;
75700;SDS011;64321;48.796;44.740;2023-05-23T01:35:32;14.80;;;6.70;;
75700;SDS011;64321;48.796;44.740;2023-05-23T01:40:35;25.95;;;17.08;;
75700;SDS011;64321;48.796;44.740;2023-05-23T01:45:38;22.00;;;15.10;;
75700;SDS011;64321;48.796;44.740;2023-05-23T01:50:41;21.15;;;16.20;;
75700;SDS011;64321;48.796;44.740;2023-05-23T01:55:46;14.43;;;12.20;;
75700;SDS011;64321;48.796;44.740;2023-05-23T02:00:49;14.32;;;12.75;;
75700;SDS011;64321;48.796;44.740;2023-05-23T02:05:53;12.30;;;11.00;;
75700;SDS011;64321;48.796;44.740;2023-05-23T02:10:55;9.13;;;7.53;;
75700;SDS011;64321;48.796;44.740;2023-05-23T02:15:57;11.90;;;7.82;;
75700;SDS011;64321;48.796;44.740;2023-05-23T02:21:00;10.13;;;8.70;;
75700;SDS011;64321;48.796;44.740;2023-05-23T02:26:02;9.65;;;8.10;;
75700;SDS011;64321;48.796;44.740;2023-05-23T02:31:05;9.73;;;7.20;;
75700;SDS011;64321;48.796;44.740;2023-05-23T02:36:07;6.70;;;5.20;;
75700;SDS011;64321;48.796;44.740;2023-05-23T02:41:10;6.00;;;3.78;;
75700;SDS011;64321;48.796;44.740;2023-05-23T02:46:12;24.73;;;16.92;;
75700;SDS011;64321;48.796;44.740;2023-05-23T02:51:15;15.80;;;11.25;;
75700;SDS011;64321;48.796;44.740;2023-05-23T02:56:17;10.52;;;5.15;;
75700;SDS011;64321;48.796;44.740;2023-05-23T03:01:20;10.45;;;8.27;;
75700;SDS011;64321;48.796;44.740;2023-05-23T03:06:22;15.13;;;9.80;;
75700;SDS011;64321;48.796;44.740;2023-05-23T03:11:25;13.82;;;7.85;;
75700;SDS011;64321;48.796;44.740;2023-05-23T03:16:27;7.75;;;4.50;;
75700;SDS011;64321;48.796;44.740;2023-05-23T03:21:31;7.78;;;4.50;;
75700;SDS011;64321;48.796;44.740;2023-05-23T03:26:33;7.60;;;3.00;;
75700;SDS011;64321;48.796;44.740;2023-05-23T03:31:35;6.28;;;3.25;;
75700;SDS011;64321;48.796;44.740;2023-05-23T03:36:38;6.53;;;3.25;;
75700;SDS011;64321;48.796;44.740;2023-05-23T03:41:41;5.90;;;2.03;;
75700;SDS011;64321;48.796;44.740;2023-05-23T03:46:44;4.50;;;2.00;;
75700;SDS011;64321;48.796;44.740;2023-05-23T03:51:46;6.40;;;1.77;;
75700;SDS011;64321;48.796;44.740;2023-05-23T03:56:50;7.18;;;1.45;;
75700;SDS011;64321;48.796;44.740;2023-05-23T04:01:53;6.05;;;2.47;;
75700;SDS011;64321;48.796;44.740;2023-05-23T04:06:57;7.68;;;1.63;;
75700;SDS011;64321;48.796;44.740;2023-05-23T04:12:01;4.25;;;1.80;;
75700;SDS011;64321;48.796;44.740;2023-05-23T04:17:04;4.85;;;1.35;;
75700;SDS011;64321;48.796;44.740;2023-05-23T04:22:06;7.72;;;1.77;;
75700;SDS011;64321;48.796;44.740;2023-05-23T04:27:10;4.80;;;2.20;;
75700;SDS011;64321;48.796;44.740;2023-05-23T04:32:12;8.90;;;1.77;;
75700;SDS011;64321;48.796;44.740;2023-05-23T04:37:15;5.28;;;1.98;;
75700;SDS011;64321;48.796;44.740;2023-05-23T04:42:18;6.53;;;1.45;;
75700;SDS011;64321;48.796;44.740;2023-05-23T04:47:57;10.38;;;1.45;;
75700;SDS011;64321;48.796;44.740;2023-05-23T04:53:10;5.20;;;2.22;;
75700;SDS011;64321;48.796;44.740;2023-05-23T04:58:14;7.82;;;2.78;;
75700;SDS011;64321;48.796;44.740;2023-05-23T05:03:17;6.28;;;2.47;;
75700;SDS011;64321;48.796;44.740;2023-05-23T05:08:21;9.90;;;2.35;;
75700;SDS011;64321;48.796;44.740;2023-05-23T05:13:24;12.52;;;3.20;;
75700;SDS011;64321;48.796;44.740;2023-05-23T05:18:29;7.15;;;2.35;;
75700;SDS011;64321;48.796;44.740;2023-05-23T05:23:32;13.20;;;3.97;;
75700;SDS011;64321;48.796;44.740;2023-05-23T05:28:35;16.00;;;6.43;;
75700;SDS011;64321;48.796;44.740;2023-05-23T05:33:38;16.17;;;4.97;;
75700;SDS011;64321;48.796;44.740;2023-05-23T05:38:43;9.35;;;2.10;;
75700;SDS011;64321;48.796;44.740;2023-05-23T05:43:46;9.00;;;2.22;;
75700;SDS011;64321;48.796;44.740;2023-05-23T05:48:49;5.45;;;1.05;;
75700;SDS011;64321;48.796;44.740;2023-05-23T05:53:52;7.57;;;1.88;;
75700;SDS011;64321;48.796;44.740;2023-05-23T05:58:55;6.95;;;3.17;;
75700;SDS011;64321;48.796;44.740;2023-05-23T06:03:58;6.70;;;1.65;;
75700;SDS011;64321;48.796;44.740;2023-05-23T06:09:01;7.22;;;2.45;;
75700;SDS011;64321;48.796;44.740;2023-05-23T06:14:03;10.48;;;1.83;;
75700;SDS011;64321;48.796;44.740;2023-05-23T06:19:06;6.28;;;2.03;;
75700;SDS011;64321;48.796;44.740;2023-05-23T06:24:11;11.13;;;2.03;;
75700;SDS011;64321;48.796;44.740;2023-05-23T06:29:15;7.13;;;2.17;;
75700;SDS011;64321;48.796;44.740;2023-05-23T06:34:17;8.18;;;1.52;;
75700;SDS011;64321;48.796;44.740;2023-05-23T06:39:20;5.93;;;1.95;;
75700;SDS011;64321;48.796;44.740;2023-05-23T06:44:22;6.63;;;2.95;;
75700;SDS011;64321;48.796;44.740;2023-05-23T06:49:28;7.40;;;2.22;;
75700;SDS011;64321;48.796;44.740;2023-05-23T06:54:31;8.32;;;2.97;;
75700;SDS011;64321;48.796;44.740;2023-05-23T06:59:33;11.27;;;4.60;;
75700;SDS011;64321;48.796;44.740;2023-05-23T07:04:36;7.03;;;3.15;;
75700;SDS011;64321;48.796;44.740;2023-05-23T07:09:46;11.02;;;4.28;;
75700;SDS011;64321;48.796;44.740;2023-05-23T07:14:52;13.93;;;5.20;;
75700;SDS011;64321;48.796;44.740;2023-05-23T07:19:55;12.02;;;5.45;;
75700;SDS011;64321;48.796;44.740;2023-05-23T07:24:58;14.32;;;5.50;;
75700;SDS011;64321;48.796;44.740;2023-05-23T07:30:05;13.70;;;4.18;;
75700;SDS011;64321;48.796;44.740;2023-05-23T07:35:10;11.00;;;4.53;;
75700;SDS011;64321;48.796;44.740;2023-05-23T07:40:12;10.10;;;3.38;;
75700;SDS011;64321;48.796;44.740;2023-05-23T07:45:14;16.13;;;4.93;;
75700;SDS011;64321;48.796;44.740;2023-05-23T07:50:17;14.32;;;4.30;;
75700;SDS011;64321;48.796;44.740;2023-05-23T07:55:20;14.35;;;4.22;;
75700;SDS011;64321;48.796;44.740;2023-05-23T08:00:22;10.93;;;3.90;;
75700;SDS011;64321;48.796;44.740;2023-05-23T08:05:30;13.15;;;6.45;;
75700;SDS011;64321;48.796;44.740;2023-05-23T08:10:33;15.23;;;5.55;;
75700;SDS011;64321;48.796;44.740;2023-05-23T08:15:42;13.45;;;4.90;;
75700;SDS011;64321;48.796;44.740;2023-05-23T08:20:50;11.88;;;4.85;;
75700;SDS011;64321;48.796;44.740;2023-05-23T08:25:53;17.17;;;6.55;;
75700;SDS011;64321;48.796;44.740;2023-05-23T08:30:57;14.25;;;5.70;;
75700;SDS011;64321;48.796;44.740;2023-05-23T08:36:03;18.35;;;6.95;;
75700;SDS011;64321;48.796;44.740;2023-05-23T08:41:05;11.13;;;4.43;;
75700;SDS011;64321;48.796;44.740;2023-05-23T08:46:13;15.38;;;5.57;;
75700;SDS011;64321;48.796;44.740;2023-05-23T08:51:17;12.00;;;5.13;;
75700;SDS011;64321;48.796;44.740;2023-05-23T08:56:22;13.90;;;6.00;;
75700;SDS011;64321;48.796;44.740;2023-05-23T09:01:26;13.75;;;5.95;;
75700;SDS011;64321;48.796;44.740;2023-05-23T09:06:33;15.45;;;6.60;;
75700;SDS011;64321;48.796;44.740;2023-05-23T09:11:35;18.10;;;6.70;;
75700;SDS011;64321;48.796;44.740;2023-05-23T09:16:45;16.20;;;7.18;;
75700;SDS011;64321;48.796;44.740;2023-05-23T09:21:50;17.13;;;6.93;;
75700;SDS011;64321;48.796;44.740;2023-05-23T09:27:09;15.18;;;8.40;;
75700;SDS011;64321;48.796;44.740;2023-05-23T09:32:16;16.30;;;7.28;;
75700;SDS011;64321;48.796;44.740;2023-05-23T09:37:18;14.75;;;6.55;;
75700;SDS011;64321;48.796;44.740;2023-05-23T09:42:21;14.60;;;7.35;;
75700;SDS011;64321;48.796;44.740;2023-05-23T09:52:37;13.30;;;6.55;;
75700;SDS011;64321;48.796;44.740;2023-05-23T09:57:40;14.55;;;7.15;;
75700;SDS011;64321;48.796;44.740;2023-05-23T10:07:52;19.60;;;7.95;;
75700;SDS011;64321;48.796;44.740;2023-05-23T10:12:55;17.58;;;8.13;;
75700;SDS011;64321;48.796;44.740;2023-05-23T10:18:06;18.33;;;8.93;;
75700;SDS011;64321;48.796;44.740;2023-05-23T10:23:10;20.23;;;10.18;;
75700;SDS011;64321;48.796;44.740;2023-05-23T10:28:13;17.85;;;9.10;;
75700;SDS011;64321;48.796;44.740;2023-05-23T10:33:15;17.13;;;9.77;;
75700;SDS011;64321;48.796;44.740;2023-05-23T10:43:41;17.30;;;8.88;;
75700;SDS011;64321;48.796;44.740;2023-05-23T10:48:46;13.35;;;8.15;;
75700;SDS011;64321;48.796;44.740;2023-05-23T10:53:52;14.52;;;9.32;;
75700;SDS011;64321;48.796;44.740;2023-05-23T10:58:55;16.20;;;8.32;;
75700;SDS011;64321;48.796;44.740;2023-05-23T11:03:57;12.80;;;8.50;;
75700;SDS011;64321;48.796;44.740;2023-05-23T11:14:11;13.68;;;7.60;;
75700;SDS011;64321;48.796;44.740;2023-05-23T11:24:23;12.65;;;7.30;;
75700;SDS011;64321;48.796;44.740;2023-05-23T11:29:28;11.18;;;6.20;;
75700;SDS011;64321;48.796;44.740;2023-05-23T11:34:31;11.27;;;5.55;;
75700;SDS011;64321;48.796;44.740;2023-05-23T11:39:34;10.25;;;5.75;;
75700;SDS011;64321;48.796;44.740;2023-05-23T11:44:36;13.13;;;5.80;;
75700;SDS011;64321;48.796;44.740;2023-05-23T11:49:39;11.20;;;5.50;;
75700;SDS011;64321;48.796;44.740;2023-05-23T11:54:41;12.90;;;6.50;;
75700;SDS011;64321;48.796;44.740;2023-05-23T11:59:44;12.00;;;6.18;;
75700;SDS011;64321;48.796;44.740;2023-05-23T12:04:49;12.48;;;5.88;;
75700;SDS011;64321;48.796;44.740;2023-05-23T12:09:56;9.90;;;5.85;;
75700;SDS011;64321;48.796;44.740;2023-05-23T12:14:59;10.13;;;6.05;;
75700;SDS011;64321;48.796;44.740;2023-05-23T12:20:02;12.32;;;5.97;;
75700;SDS011;64321;48.796;44.740;2023-05-23T12:25:07;12.10;;;5.60;;
75700;SDS011;64321;48.796;44.740;2023-05-23T12:30:13;13.55;;;5.63;;
75700;SDS011;64321;48.796;44.740;2023-05-23T12:35:16;15.70;;;6.95;;
75700;SDS011;64321;48.796;44.740;2023-05-23T12:40:18;13.30;;;5.93;;
75700;SDS011;64321;48.796;44.740;2023-05-23T12:45:29;13.68;;;6.20;;
75700;SDS011;64321;48.796;44.740;2023-05-23T12:50:32;13.50;;;6.97;;
75700;SDS011;64321;48.796;44.740;2023-05-23T12:55:34;11.30;;;5.90;;
75700;SDS011;64321;48.796;44.740;2023-05-23T13:00:36;16.27;;;6.00;;
75700;SDS011;64321;48.796;44.740;2023-05-23T13:05:39;12.25;;;7.38;;
75700;SDS011;64321;48.796;44.740;2023-05-23T13:10:42;15.38;;;7.80;;
75700;SDS011;64321;48.796;44.740;2023-05-23T13:15:44;16.75;;;6.45;;
75700;SDS011;64321;48.796;44.740;2023-05-23T13:25:52;16.75;;;6.55;;
75700;SDS011;64321;48.796;44.740;2023-05-23T13:30:54;16.00;;;8.07;;
75700;SDS011;64321;48.796;44.740;2023-05-23T13:35:57;17.30;;;7.03;;
75700;SDS011;64321;48.796;44.740;2023-05-23T13:40:59;12.23;;;7.40;;
75700;SDS011;64321;48.796;44.740;2023-05-23T13:46:01;17.48;;;7.43;;
75700;SDS011;64321;48.796;44.740;2023-05-23T13:51:04;14.82;;;8.07;;
75700;SDS011;64321;48.796;44.740;2023-05-23T13:56:06;13.88;;;7.53;;
75700;SDS011;64321;48.796;44.740;2023-05-23T14:01:09;14.15;;;7.95;;
75700;SDS011;64321;48.796;44.740;2023-05-23T14:06:11;19.15;;;7.78;;
75700;SDS011;64321;48.796;44.740;2023-05-23T14:11:15;17.88;;;8.98;;
75700;SDS011;64321;48.796;44.740;2023-05-23T14:16:17;14.68;;;9.15;;
75700;SDS011;64321;48.796;44.740;2023-05-23T14:21:20;16.70;;;7.68;;
75700;SDS011;64321;48.796;44.740;2023-05-23T14:26:22;18.27;;;7.55;;
75700;SDS011;64321;48.796;44.740;2023-05-23T14:31:25;18.40;;;8.65;;
75700;SDS011;64321;48.796;44.740;2023-05-23T14:36:27;15.68;;;7.32;;
75700;SDS011;64321;48.796;44.740;2023-05-23T14:41:30;16.52;;;8.38;;
75700;SDS011;64321;48.796;44.740;2023-05-23T14:46:32;18.98;;;7.70;;
75700;SDS011;64321;48.796;44.740;2023-05-23T14:51:35;15.52;;;8.68;;
75700;SDS011;64321;48.796;44.740;2023-05-23T14:56:51;15.13;;;8.05;;
75700;SDS011;64321;48.796;44.740;2023-05-23T15:01:54;23.27;;;7.50;;
75700;SDS011;64321;48.796;44.740;2023-05-23T15:06:56;18.02;;;7.88;;
75700;SDS011;64321;48.796;44.740;2023-05-23T15:11:59;11.88;;;7.70;;
75700;SDS011;64321;48.796;44.740;2023-05-23T15:17:01;18.98;;;8.98;;
75700;SDS011;64321;48.796;44.740;2023-05-23T15:22:08;17.27;;;7.97;;
75700;SDS011;64321;48.796;44.740;2023-05-23T15:27:23;17.40;;;8.48;;
75700;SDS011;64321;48.796;44.740;2023-05-23T15:32:25;18.27;;;8.20;;
75700;SDS011;64321;48.796;44.740;2023-05-23T15:37:27;17.33;;;8.02;;
75700;SDS011;64321;48.796;44.740;2023-05-23T15:42:30;21.23;;;8.93;;
75700;SDS011;64321;48.796;44.740;2023-05-23T15:47:32;16.90;;;7.93;;
75700;SDS011;64321;48.796;44.740;2023-05-23T15:52:35;23.90;;;7.70;;
75700;SDS011;64321;48.796;44.740;2023-05-23T15:57:37;18.77;;;7.82;;
75700;SDS011;64321;48.796;44.740;2023-05-23T16:02:40;16.95;;;8.05;;
75700;SDS011;64321;48.796;44.740;2023-05-23T16:07:43;16.70;;;8.43;;
75700;SDS011;64321;48.796;44.740;2023-05-23T16:12:46;16.83;;;8.70;;
75700;SDS011;64321;48.796;44.740;2023-05-23T16:17:49;16.58;;;8.43;;
75700;SDS011;64321;48.796;44.740;2023-05-23T16:22:51;18.00;;;8.23;;
75700;SDS011;64321;48.796;44.740;2023-05-23T16:27:54;20.92;;;10.63;;
75700;SDS011;64321;48.796;44.740;2023-05-23T16:32:56;18.23;;;9.10;;
75700;SDS011;64321;48.796;44.740;2023-05-23T16:37:58;21.20;;;9.52;;
75700;SDS011;64321;48.796;44.740;2023-05-23T16:43:01;22.85;;;8.80;;
75700;SDS011;64321;48.796;44.740;2023-05-23T16:48:04;29.67;;;10.48;;
75700;SDS011;64321;48.796;44.740;2023-05-23T16:53:07;29.77;;;10.52;;
75700;SDS011;64321;48.796;44.740;2023-05-23T16:58:09;30.95;;;13.05;;
75700;SDS011;64321;48.796;44.740;2023-05-23T17:03:13;29.58;;;12.13;;
75700;SDS011;64321;48.796;44.740;2023-05-23T17:08:15;30.13;;;10.75;;
75700;SDS011;64321;48.796;44.740;2023-05-23T17:13:18;26.30;;;11.65;;
75700;SDS011;64321;48.796;44.740;2023-05-23T17:18:20;22.13;;;10.82;;
75700;SDS011;64321;48.796;44.740;2023-05-23T17:23:23;24.48;;;12.45;;
75700;SDS011;64321;48.796;44.740;2023-05-23T17:28:25;20.08;;;9.25;;
75700;SDS011;64321;48.796;44.740;2023-05-23T17:33:27;21.40;;;10.25;;
75700;SDS011;64321;48.796;44.740;2023-05-23T17:38:30;19.20;;;10.40;;
75700;SDS011;64321;48.796;44.740;2023-05-23T17:43:32;20.15;;;9.13;;
75700;SDS011;64321;48.796;44.740;2023-05-23T17:48:34;16.63;;;8.50;;
75700;SDS011;64321;48.796;44.740;2023-05-23T17:53:48;14.18;;;7.53;;
75700;SDS011;64321;48.796;44.740;2023-05-23T17:58:55;14.40;;;7.82;;
75700;SDS011;64321;48.796;44.740;2023-05-23T18:03:58;18.38;;;9.02;;
75700;SDS011;64321;48.796;44.740;2023-05-23T18:09:00;18.83;;;7.80;;
75700;SDS011;64321;48.796;44.740;2023-05-23T18:14:03;15.50;;;7.15;;
75700;SDS011;64321;48.796;44.740;2023-05-23T18:19:05;18.15;;;7.88;;
75700;SDS011;64321;48.796;44.740;2023-05-23T18:24:08;14.23;;;7.55;;
75700;SDS011;64321;48.796;44.740;2023-05-23T18:29:12;16.08;;;7.90;;
75700;SDS011;64321;48.796;44.740;2023-05-23T18:34:14;16.13;;;7.72;;
75700;SDS011;64321;48.796;44.740;2023-05-23T18:39:17;15.27;;;9.13;;
75700;SDS011;64321;48.796;44.740;2023-05-23T18:44:20;13.15;;;6.72;;
75700;SDS011;64321;48.796;44.740;2023-05-23T18:49:24;12.73;;;8.23;;
75700;SDS011;64321;48.796;44.740;2023-05-23T18:54:48;15.80;;;8.00;;
75700;SDS011;64321;48.796;44.740;2023-05-23T19:04:54;16.20;;;9.15;;
75700;SDS011;64321;48.796;44.740;2023-05-23T19:09:56;17.13;;;9.20;;
75700;SDS011;64321;48.796;44.740;2023-05-23T19:14:58;16.20;;;7.35;;
75700;SDS011;64321;48.796;44.740;2023-05-23T19:20:01;17.02;;;8.05;;
75700;SDS011;64321;48.796;44.740;2023-05-23T19:25:06;17.70;;;8.40;;
75700;SDS011;64321;48.796;44.740;2023-05-23T19:30:09;17.77;;;7.97;;
75700;SDS011;64321;48.796;44.740;2023-05-23T19:35:11;15.90;;;8.68;;
75700;SDS011;64321;48.796;44.740;2023-05-23T19:40:17;13.05;;;8.10;;
75700;SDS011;64321;48.796;44.740;2023-05-23T19:45:22;16.20;;;7.20;;
75700;SDS011;64321;48.796;44.740;2023-05-23T19:50:24;17.38;;;7.78;;
75700;SDS011;64321;48.796;44.740;2023-05-23T19:55:27;14.77;;;7.68;;
75700;SDS011;64321;48.796;44.740;2023-05-23T20:00:29;15.95;;;7.50;;
75700;SDS011;64321;48.796;44.740;2023-05-23T20:05:32;14.02;;;6.93;;
75700;SDS011;64321;48.796;44.740;2023-05-23T20:10:34;14.82;;;7.90;;
75700;SDS011;64321;48.796;44.740;2023-05-23T20:15:36;13.90;;;8.25;;
75700;SDS011;64321;48.796;44.740;2023-05-23T20:20:41;12.57;;;7.07;;
75700;SDS011;64321;48.796;44.740;2023-05-23T20:25:44;14.52;;;6.97;;
75700;SDS011;64321;48.796;44.740;2023-05-23T20:30:46;18.55;;;7.65;;
75700;SDS011;64321;48.796;44.740;2023-05-23T20:35:48;14.75;;;8.10;;
75700;SDS011;64321;48.796;44.740;2023-05-23T20:40:51;24.40;;;8.52;;
75700;SDS011;64321;48.796;44.740;2023-05-23T20:45:53;22.23;;;8.43;;
75700;SDS011;64321;48.796;44.740;2023-05-23T20:50:58;18.20;;;8.18;;
75700;SDS011;64321;48.796;44.740;2023-05-23T20:56:01;16.05;;;7.72;;
75700;SDS011;64321;48.796;44.740;2023-05-23T21:01:03;18.95;;;7.75;;
75700;SDS011;64321;48.796;44.740;2023-05-23T21:06:06;19.45;;;8.60;;
75700;SDS011;64321;48.796;44.740;2023-05-23T21:11:09;17.63;;;8.48;;
75700;SDS011;64321;48.796;44.740;2023-05-23T21:16:12;14.65;;;8.50;;
75700;SDS011;64321;48.796;44.740;2023-05-23T21:21:15;15.30;;;7.28;;
75700;SDS011;64321;48.796;44.740;2023-05-23T21:26:17;14.85;;;7.30;;
75700;SDS011;64321;48.796;44.740;2023-05-23T21:31:20;17.70;;;7.82;;
75700;SDS011;64321;48.796;44.740;2023-05-23T21:36:38;16.33;;;7.43;;
75700;SDS011;64321;48.796;44.740;2023-05-23T21:41:40;17.20;;;7.85;;
75700;SDS011;64321;48.796;44.740;2023-05-23T21:46:42;20.75;;;8.85;;
75700;SDS011;64321;48.796;44.740;2023-05-23T21:51:45;17.35;;;9.57;;
75700;SDS011;64321;48.796;44.740;2023-05-23T21:56:47;21.50;;;13.05;;
75700;SDS011;64321;48.796;44.740;2023-05-23T22:01:49;26.98;;;14.02;;
75700;SDS011;64321;48.796;44.740;2023-05-23T22:06:52;27.92;;;15.20;;
75700;SDS011;64321;48.796;44.740;2023-05-23T22:11:54;20.70;;;12.52;;
75700;SDS011;64321;48.796;44.740;2023-05-23T22:16:57;20.30;;;9.80;;
75700;SDS011;64321;48.796;44.740;2023-05-23T22:22:03;18.10;;;11.45;;
75700;SDS011;64321;48.796;44.740;2023-05-23T22:27:05;21.98;;;12.43;;
75700;SDS011;64321;48.796;44.740;2023-05-23T22:32:07;19.98;;;10.02;;
75700;SDS011;64321;48.796;44.740;2023-05-23T22:37:10;19.90;;;11.00;;
75700;SDS011;64321;48.796;44.740;2023-05-23T22:42:12;16.50;;;10.18;;
75700;SDS011;64321;48.796;44.740;2023-05-23T22:47:14;17.23;;;9.40;;
75700;SDS011;64321;48.796;44.740;2023-05-23T22:52:17;23.05;;;11.68;;
75700;SDS011;64321;48.796;44.740;2023-05-23T22:57:19;20.70;;;9.02;;
75700;SDS011;64321;48.796;44.740;2023-05-23T23:02:22;23.80;;;9.23;;
75700;SDS011;64321;48.796;44.740;2023-05-23T23:07:24;21.92;;;11.98;;
75700;SDS011;64321;48.796;44.740;2023-05-23T23:12:26;22.10;;;11.70;;
75700;SDS011;64321;48.796;44.740;2023-05-23T23:17:28;28.25;;;15.05;;
75700;SDS011;64321;48.796;44.740;2023-05-23T23:22:31;29.80;;;16.30;;
75700;SDS011;64321;48.796;44.740;2023-05-23T23:27:33;31.67;;;16.45;;
75700;SDS011;64321;48.796;44.740;2023-05-23T23:32:36;36.90;;;19.30;;
75700;SDS011;64321;48.796;44.740;2023-05-23T23:37:38;47.38;;;27.25;;
75700;SDS011;64321;48.796;44.740;2023-05-23T23:42:41;45.67;;;26.05;;
75700;SDS011;64321;48.796;44.740;2023-05-23T23:47:43;46.72;;;24.83;;
75700;SDS011;64321;48.796;44.740;2023-05-23T23:52:47;52.50;;;27.50;;
75700;SDS011;64321;48.796;44.740;2023-05-23T23:57:49;55.42;;;30.75;;
